createdAt,value
2022-07-25T00:00:37.217Z,62.70
2022-07-25T00:03:05.166Z,62.90
2022-07-25T00:05:38.051Z,62.90
2022-07-25T00:08:06.437Z,62.10
2022-07-25T00:10:33.921Z,61.70
2022-07-25T00:13:01.214Z,62.00
2022-07-25T00:15:28.733Z,62.00
2022-07-25T00:17:56.070Z,62.50
2022-07-25T00:20:23.392Z,62.40
2022-07-25T00:22:50.756Z,62.20
2022-07-25T00:25:18.154Z,62.30
2022-07-25T00:27:45.443Z,62.30
2022-07-25T00:30:13.216Z,62.60
2022-07-25T00:32:40.890Z,62.10
2022-07-25T00:35:08.674Z,62.50
2022-07-25T00:37:36.139Z,62.10
2022-07-25T00:40:03.926Z,62.20
2022-07-25T00:42:31.451Z,62.00
2022-07-25T00:45:00.327Z,62.50
2022-07-25T00:47:27.733Z,62.50
2022-07-25T00:49:55.141Z,62.90
2022-07-25T00:52:24.788Z,63.20
2022-07-25T00:54:52.148Z,63.10
2022-07-25T00:57:19.558Z,63.00
2022-07-25T00:59:47.100Z,63.10
2022-07-25T01:02:14.590Z,63.50
2022-07-25T01:04:42.053Z,63.70
2022-07-25T01:07:09.562Z,64.10
2022-07-25T01:09:37.830Z,64.60
2022-07-25T01:12:05.943Z,64.80
2022-07-25T01:14:39.123Z,65.20
2022-07-25T01:17:06.449Z,65.20
2022-07-25T01:19:33.998Z,65.40
2022-07-25T01:22:01.570Z,65.70
2022-07-25T01:24:29.722Z,65.70
2022-07-25T01:26:59.803Z,65.80
2022-07-25T01:29:27.151Z,66.00
2022-07-25T01:31:54.556Z,66.20
2022-07-25T01:34:21.783Z,66.50
2022-07-25T01:36:49.145Z,66.70
2022-07-25T01:39:16.924Z,68.00
2022-07-25T01:41:44.231Z,67.60
2022-07-25T01:44:11.596Z,67.20
2022-07-25T01:46:38.865Z,67.50
2022-07-25T01:49:06.549Z,67.40
2022-07-25T01:51:33.864Z,67.70
2022-07-25T01:54:01.120Z,67.70
2022-07-25T01:56:32.013Z,68.20
2022-07-25T01:58:59.768Z,68.30
2022-07-25T02:01:27.926Z,68.30
2022-07-25T02:03:55.343Z,68.40
2022-07-25T02:06:22.562Z,68.40
2022-07-25T02:08:49.976Z,68.30
2022-07-25T02:11:17.468Z,68.30
2022-07-25T02:13:44.901Z,68.80
2022-07-25T02:16:12.557Z,68.90
2022-07-25T02:18:40.536Z,68.90
2022-07-25T02:21:14.584Z,69.10
2022-07-25T02:23:43.280Z,68.90
2022-07-25T02:26:12.045Z,69.10
2022-07-25T02:28:40.069Z,69.30
2022-07-25T02:31:08.084Z,69.10
2022-07-25T02:33:35.730Z,69.10
2022-07-25T02:36:03.141Z,69.40
2022-07-25T02:38:30.957Z,69.50
2022-07-25T02:40:58.230Z,69.50
2022-07-25T02:43:25.956Z,69.60
2022-07-25T02:45:53.499Z,69.70
2022-07-25T02:48:20.943Z,70.30
2022-07-25T02:50:48.441Z,70.00
2022-07-25T02:53:28.778Z,70.30
2022-07-25T02:56:03.159Z,70.10
2022-07-25T02:58:33.339Z,70.30
2022-07-25T03:01:00.676Z,70.30
2022-07-25T03:03:28.152Z,70.60
2022-07-25T03:05:55.538Z,70.50
2022-07-25T03:08:23.268Z,71.10
2022-07-25T03:10:50.953Z,70.80
2022-07-25T03:13:18.349Z,70.50
2022-07-25T03:15:47.490Z,70.60
2022-07-25T03:18:14.819Z,70.60
2022-07-25T03:20:42.193Z,70.60
2022-07-25T03:23:09.596Z,70.80
2022-07-25T03:25:37.175Z,70.90
2022-07-25T03:28:05.089Z,71.00
2022-07-25T03:30:32.483Z,71.30
2022-07-25T03:32:59.762Z,70.80
2022-07-25T03:35:27.050Z,70.60
2022-07-25T03:37:54.656Z,70.60
2022-07-25T03:40:22.289Z,70.80
2022-07-25T03:42:49.645Z,70.20
2022-07-25T03:45:18.086Z,70.30
2022-07-25T03:47:45.383Z,70.80
2022-07-25T03:50:12.774Z,70.70
2022-07-25T03:52:40.342Z,71.00
2022-07-25T03:55:09.866Z,70.50
2022-07-25T03:57:37.715Z,70.90
2022-07-25T04:00:07.971Z,71.30
2022-07-25T04:02:35.816Z,70.90
2022-07-25T04:05:03.479Z,70.70
2022-07-25T04:07:31.166Z,70.90
2022-07-25T04:09:59.367Z,70.90
2022-07-25T04:12:26.812Z,71.00
2022-07-25T04:14:54.228Z,71.40
2022-07-25T04:17:21.604Z,71.50
2022-07-25T04:19:49.448Z,71.50
2022-07-25T04:22:16.662Z,71.60
2022-07-25T04:24:43.992Z,71.70
2022-07-25T04:27:11.372Z,70.90
2022-07-25T04:29:38.654Z,71.20
2022-07-25T04:32:06.631Z,70.30
2022-07-25T04:34:34.346Z,70.20
2022-07-25T04:37:01.601Z,71.20
2022-07-25T04:39:28.946Z,71.10
2022-07-25T04:41:56.093Z,70.00
2022-07-25T04:44:23.318Z,70.00
2022-07-25T04:46:50.545Z,69.50
2022-07-25T04:49:17.885Z,68.70
2022-07-25T04:51:45.172Z,68.50
2022-07-25T04:54:12.390Z,68.30
2022-07-25T04:56:39.602Z,67.90
2022-07-25T04:59:07.328Z,67.40
2022-07-25T05:01:36.362Z,66.40
2022-07-25T05:04:04.024Z,66.60
2022-07-25T05:06:31.645Z,66.20
2022-07-25T05:08:59.111Z,66.00
2022-07-25T05:11:26.369Z,66.00
2022-07-25T05:13:53.737Z,64.90
2022-07-25T05:16:20.969Z,65.20
2022-07-25T05:18:48.238Z,65.20
2022-07-25T05:21:15.792Z,64.60
2022-07-25T05:23:43.216Z,64.40
2022-07-25T05:26:10.493Z,64.50
2022-07-25T05:28:37.720Z,62.80
2022-07-25T05:31:05.222Z,63.00
2022-07-25T05:33:33.805Z,63.30
2022-07-25T05:36:01.934Z,62.30
2022-07-25T05:38:29.375Z,61.10
2022-07-25T05:40:56.625Z,61.10
2022-07-25T05:43:24.134Z,61.00
2022-07-25T05:45:51.492Z,62.30
2022-07-25T05:48:18.972Z,60.70
2022-07-25T05:50:46.430Z,60.20
2022-07-25T05:53:13.860Z,60.10
2022-07-25T05:55:41.221Z,60.00
2022-07-25T05:58:09.819Z,59.80
2022-07-25T06:00:38.121Z,59.10
2022-07-25T06:03:06.294Z,58.60
2022-07-25T06:05:33.824Z,59.00
2022-07-25T06:08:01.118Z,58.20
2022-07-25T06:10:28.641Z,58.70
2022-07-25T06:12:55.902Z,58.70
2022-07-25T06:15:26.885Z,59.50
2022-07-25T06:17:55.170Z,58.80
2022-07-25T06:20:22.790Z,58.20
2022-07-25T06:22:50.134Z,58.40
2022-07-25T06:25:17.640Z,58.20
2022-07-25T06:27:45.071Z,57.70
2022-07-25T06:30:20.250Z,57.40
2022-07-25T06:32:51.486Z,57.20
2022-07-25T06:35:19.076Z,58.00
2022-07-25T06:37:47.467Z,56.60
2022-07-25T06:40:15.107Z,56.30
2022-07-25T06:42:45.721Z,56.40
2022-07-25T06:45:15.398Z,56.40
2022-07-25T06:47:44.386Z,55.70
2022-07-25T06:50:18.858Z,55.30
2022-07-25T06:52:48.948Z,54.20
2022-07-25T06:55:19.759Z,55.00
2022-07-25T06:57:47.419Z,54.10
2022-07-25T07:00:15.509Z,54.30
2022-07-25T07:02:58.855Z,53.50
2022-07-25T07:05:28.525Z,54.00
2022-07-25T07:07:56.260Z,54.00
2022-07-25T07:10:24.126Z,53.30
2022-07-25T07:12:52.101Z,54.40
2022-07-25T07:15:19.487Z,53.10
2022-07-25T07:17:46.850Z,52.50
2022-07-25T07:20:14.232Z,53.10
2022-07-25T07:22:50.058Z,52.50
2022-07-25T07:25:19.666Z,51.60
2022-07-25T07:27:48.251Z,51.80
2022-07-25T07:30:18.565Z,51.50
2022-07-25T07:32:49.713Z,51.20
2022-07-25T07:35:17.729Z,51.40
2022-07-25T07:37:46.105Z,50.90
2022-07-25T07:40:17.157Z,51.70
2022-07-25T07:42:47.944Z,51.70
2022-07-25T07:45:18.469Z,51.60
2022-07-25T07:47:48.914Z,50.50
2022-07-25T07:50:18.538Z,50.90
2022-07-25T07:52:47.007Z,51.80
2022-07-25T07:55:33.290Z,51.20
2022-07-25T07:58:00.973Z,51.00
2022-07-25T08:00:31.296Z,51.40
2022-07-25T08:02:59.752Z,50.40
2022-07-25T08:05:30.016Z,51.30
2022-07-25T08:07:58.288Z,51.40
2022-07-25T08:10:30.747Z,51.30
2022-07-25T08:12:59.765Z,50.10
2022-07-25T08:15:27.564Z,50.10
2022-07-25T08:17:54.934Z,50.60
2022-07-25T08:20:37.801Z,50.40
2022-07-25T08:23:06.501Z,52.80
2022-07-25T08:25:35.404Z,50.20
2022-07-25T08:28:02.921Z,50.60
2022-07-25T08:30:30.301Z,50.40
2022-07-25T08:33:00.255Z,50.50
2022-07-25T08:35:29.116Z,50.20
2022-07-25T08:37:57.783Z,49.90
2022-07-25T08:40:28.083Z,49.30
2022-07-25T08:42:56.950Z,49.30
2022-07-25T08:45:25.842Z,50.90
2022-07-25T08:47:55.186Z,50.30
2022-07-25T08:50:29.139Z,49.80
2022-07-25T08:53:16.628Z,50.30
2022-07-25T08:55:46.114Z,49.70
2022-07-25T08:58:15.012Z,49.90
2022-07-25T09:00:43.400Z,50.20
2022-07-25T09:03:11.270Z,50.00
2022-07-25T09:05:39.756Z,49.70
2022-07-25T09:08:08.638Z,49.30
2022-07-25T09:10:37.293Z,49.30
2022-07-25T09:13:14.432Z,48.80
2022-07-25T09:15:46.945Z,48.80
2022-07-25T09:18:17.113Z,48.80
2022-07-25T09:20:47.244Z,48.50
2022-07-25T09:23:35.819Z,48.70
2022-07-25T09:26:14.852Z,49.50
2022-07-25T09:28:48.004Z,47.70
2022-07-25T09:31:17.008Z,47.60
2022-07-25T09:33:56.665Z,47.70
2022-07-25T09:36:24.329Z,49.30
2022-07-25T09:38:55.898Z,49.30
2022-07-25T09:41:33.411Z,48.20
2022-07-25T09:44:00.794Z,47.70
2022-07-25T09:46:32.776Z,48.70
2022-07-25T09:49:01.213Z,48.00
2022-07-25T09:51:29.294Z,47.20
2022-07-25T09:53:57.341Z,47.30
2022-07-25T09:56:24.582Z,48.00
2022-07-25T09:58:53.035Z,47.70
2022-07-25T10:01:28.014Z,46.20
2022-07-25T10:04:12.411Z,46.80
2022-07-25T10:07:07.956Z,47.10
2022-07-25T10:09:46.072Z,46.50
2022-07-25T10:12:15.887Z,47.20
2022-07-25T10:14:43.296Z,45.90
2022-07-25T10:17:22.034Z,46.80
2022-07-25T10:19:53.174Z,48.00
2022-07-25T10:22:55.129Z,47.30
2022-07-25T10:25:23.445Z,47.50
2022-07-25T10:27:58.543Z,49.10
2022-07-25T10:30:29.182Z,48.10
2022-07-25T10:32:59.397Z,48.70
2022-07-25T10:35:28.594Z,48.50
2022-07-25T10:37:58.259Z,48.30
2022-07-25T10:40:28.499Z,47.70
2022-07-25T10:43:22.510Z,48.00
2022-07-25T10:45:58.105Z,49.40
2022-07-25T10:48:27.150Z,48.90
2022-07-25T10:51:07.356Z,47.80
2022-07-25T10:53:35.860Z,49.00
2022-07-25T10:56:10.424Z,48.70
2022-07-25T10:58:54.618Z,47.60
2022-07-25T11:01:30.910Z,46.90
2022-07-25T11:04:04.359Z,48.30
2022-07-25T11:06:36.025Z,47.60
2022-07-25T11:09:17.634Z,47.10
2022-07-25T11:11:50.047Z,46.90
2022-07-25T11:14:41.604Z,47.20
2022-07-25T11:17:18.868Z,47.20
2022-07-25T11:19:55.528Z,47.10
2022-07-25T11:22:23.091Z,46.90
2022-07-25T11:24:50.632Z,46.60
2022-07-25T11:27:29.405Z,45.70
2022-07-25T11:36:07.353Z,46.20
2022-07-25T11:38:37.396Z,46.20
2022-07-25T11:41:04.976Z,44.90
2022-07-25T11:43:32.253Z,44.60
2022-07-25T11:46:06.805Z,43.80
2022-07-25T11:48:39.770Z,45.00
2022-07-25T11:51:18.298Z,45.60
2022-07-25T11:53:51.302Z,46.10
2022-07-25T11:59:11.166Z,45.70
2022-07-25T12:01:44.931Z,43.90
2022-07-25T12:04:19.785Z,43.10
2022-07-25T12:06:49.270Z,44.10
2022-07-25T12:09:19.871Z,43.00
2022-07-25T12:11:48.874Z,43.70
2022-07-25T12:14:16.556Z,42.30
2022-07-25T12:16:44.125Z,42.90
2022-07-25T12:19:20.380Z,42.60
2022-07-25T12:21:47.858Z,40.60
2022-07-25T12:24:15.153Z,41.70
2022-07-25T12:26:42.831Z,41.80
2022-07-25T12:29:10.476Z,41.40
2022-07-25T12:31:37.959Z,41.70
2022-07-25T12:34:05.164Z,41.40
2022-07-25T12:36:34.966Z,41.00
2022-07-25T12:39:02.523Z,41.90
2022-07-25T12:41:29.779Z,41.70
2022-07-25T12:43:59.080Z,43.30
2022-07-25T12:46:26.660Z,42.10
2022-07-25T12:48:54.308Z,42.40
2022-07-25T12:51:22.179Z,42.10
2022-07-25T12:53:49.530Z,42.20
2022-07-25T12:56:16.732Z,41.80
2022-07-25T12:58:43.924Z,42.60
2022-07-25T13:01:13.897Z,41.50
2022-07-25T13:03:41.206Z,40.90
2022-07-25T13:06:08.527Z,41.10
2022-07-25T13:11:52.526Z,40.30
2022-07-25T13:14:20.338Z,40.50
2022-07-25T13:16:48.161Z,40.90
2022-07-25T13:19:16.642Z,40.10
2022-07-25T13:21:44.683Z,41.60
2022-07-25T13:24:12.852Z,40.00
2022-07-25T13:26:40.227Z,40.60
2022-07-25T13:29:09.737Z,40.90
2022-07-25T13:31:43.866Z,39.80
2022-07-25T13:34:11.395Z,41.10
2022-07-25T13:36:39.954Z,40.30
2022-07-25T13:39:07.681Z,38.90
2022-07-25T13:41:35.688Z,40.50
2022-07-25T13:44:03.038Z,40.30
2022-07-25T13:46:30.317Z,39.10
2022-07-25T13:48:57.860Z,38.90
2022-07-25T13:51:25.204Z,39.30
2022-07-25T13:53:52.845Z,39.60
2022-07-25T13:56:20.290Z,39.30
2022-07-25T13:58:47.945Z,38.30
2022-07-25T14:01:15.716Z,38.10
2022-07-25T14:03:43.447Z,39.40
2022-07-25T14:06:11.863Z,39.70
2022-07-25T14:08:42.316Z,40.10
2022-07-25T14:11:09.734Z,39.20
2022-07-25T14:13:38.368Z,39.10
2022-07-25T14:16:06.301Z,40.80
2022-07-25T14:18:33.716Z,41.60
2022-07-25T14:21:01.086Z,41.00
2022-07-25T14:23:30.215Z,41.10
2022-07-25T14:25:59.113Z,40.00
2022-07-25T14:28:26.568Z,40.60
2022-07-25T14:30:53.903Z,40.90
2022-07-25T14:33:21.336Z,40.90
2022-07-25T14:35:48.885Z,41.10
2022-07-25T14:38:16.193Z,39.60
2022-07-25T14:40:43.799Z,40.20
2022-07-25T14:43:10.990Z,41.50
2022-07-25T14:45:38.229Z,43.00
2022-07-25T14:48:08.519Z,41.40
2022-07-25T14:50:35.837Z,41.40
2022-07-25T14:53:04.436Z,42.30
2022-07-25T14:55:31.734Z,42.30
2022-07-25T14:58:02.568Z,41.40
2022-07-25T15:00:30.697Z,43.00
2022-07-25T15:02:58.195Z,43.40
2022-07-25T15:05:25.629Z,41.50
2022-07-25T15:07:52.805Z,41.20
2022-07-25T15:10:20.293Z,42.10
2022-07-25T15:12:51.471Z,42.30
2022-07-25T15:15:25.528Z,41.50
2022-07-25T15:17:53.735Z,42.30
2022-07-25T15:20:21.098Z,42.40
2022-07-25T15:22:48.335Z,42.50
2022-07-25T15:25:59.174Z,43.20
2022-07-25T15:28:03.180Z,42.10
2022-07-25T15:30:31.038Z,41.90
2022-07-25T15:32:58.416Z,41.20
2022-07-25T15:35:25.715Z,41.90
2022-07-25T15:37:53.163Z,41.60
2022-07-25T15:40:20.470Z,41.80
2022-07-25T15:42:47.690Z,41.70
2022-07-25T15:45:32.413Z,42.60
2022-07-25T15:48:01.691Z,42.20
2022-07-25T15:50:28.965Z,42.40
2022-07-25T15:52:56.607Z,42.60
2022-07-25T15:55:23.908Z,42.50
2022-07-25T15:57:53.177Z,42.40
2022-07-25T16:00:23.701Z,42.10
2022-07-25T16:02:55.007Z,42.60
2022-07-25T16:05:23.152Z,42.50
2022-07-25T16:07:50.534Z,41.10
2022-07-25T16:10:18.269Z,41.20
2022-07-25T16:12:45.690Z,41.40
2022-07-25T16:15:13.355Z,41.60
2022-07-25T16:17:40.609Z,42.00
2022-07-25T16:20:10.271Z,42.20
2022-07-25T16:22:37.902Z,42.20
2022-07-25T16:25:05.738Z,42.20
2022-07-25T16:27:33.894Z,41.40
2022-07-25T16:30:01.944Z,41.60
2022-07-25T16:32:29.387Z,41.30
2022-07-25T16:34:56.701Z,42.20
2022-07-25T16:37:24.614Z,41.60
2022-07-25T16:39:51.974Z,42.00
2022-07-25T16:42:19.223Z,42.10
2022-07-25T16:44:47.931Z,41.80
2022-07-25T16:47:15.150Z,42.20
2022-07-25T16:49:42.468Z,42.40
2022-07-25T16:52:09.686Z,42.80
2022-07-25T16:54:37.021Z,42.40
2022-07-25T16:57:04.512Z,42.20
2022-07-25T16:59:31.796Z,42.00
2022-07-25T17:01:59.351Z,42.40
2022-07-25T17:04:26.696Z,42.70
2022-07-25T17:06:54.196Z,43.40
2022-07-25T17:09:22.114Z,43.10
2022-07-25T17:11:49.508Z,42.70
2022-07-25T17:14:17.222Z,42.90
2022-07-25T17:16:44.957Z,42.60
2022-07-25T17:19:12.272Z,42.50
2022-07-25T17:21:39.705Z,42.60
2022-07-25T17:24:07.843Z,42.70
2022-07-25T17:26:35.743Z,43.00
2022-07-25T17:29:02.985Z,43.00
2022-07-25T17:31:30.254Z,43.10
2022-07-25T17:33:57.624Z,43.50
2022-07-25T17:36:24.937Z,43.20
2022-07-25T17:38:52.690Z,44.00
2022-07-25T17:41:20.135Z,44.40
2022-07-25T17:43:47.551Z,44.70
2022-07-25T17:46:15.797Z,44.80
2022-07-25T17:48:43.156Z,45.50
2022-07-25T17:51:10.575Z,45.70
2022-07-25T17:53:38.022Z,45.70
2022-07-25T17:56:05.563Z,45.80
2022-07-25T17:58:33.006Z,46.60
2022-07-25T18:01:01.728Z,47.00
2022-07-25T18:03:29.826Z,47.50
2022-07-25T18:05:57.708Z,47.10
2022-07-25T18:08:25.349Z,49.30
2022-07-25T18:10:52.635Z,47.50
2022-07-25T18:13:19.966Z,47.90
2022-07-25T18:15:47.348Z,48.90
2022-07-25T18:18:19.904Z,49.60
2022-07-25T18:20:48.117Z,49.30
2022-07-25T18:23:15.372Z,49.40
2022-07-25T18:25:45.164Z,50.00
2022-07-25T18:28:12.902Z,49.20
2022-07-25T18:30:40.323Z,49.90
2022-07-25T18:33:07.963Z,51.20
2022-07-25T18:35:35.579Z,50.60
2022-07-25T18:38:03.173Z,50.40
2022-07-25T18:40:30.742Z,50.90
2022-07-25T18:42:58.149Z,52.20
2022-07-25T18:45:25.588Z,51.50
2022-07-25T18:47:54.099Z,49.50
2022-07-25T18:50:21.359Z,50.30
2022-07-25T18:52:48.601Z,51.00
2022-07-25T18:55:15.717Z,51.20
2022-07-25T18:57:43.089Z,52.80
2022-07-25T19:00:11.531Z,54.10
2022-07-25T19:02:38.885Z,55.40
2022-07-25T19:05:06.801Z,53.00
2022-07-25T19:07:35.626Z,54.10
2022-07-25T19:10:02.919Z,53.50
2022-07-25T19:12:30.289Z,53.50
2022-07-25T19:14:57.666Z,53.50
2022-07-25T19:17:25.181Z,52.60
2022-07-25T19:19:52.946Z,54.50
2022-07-25T19:22:20.457Z,54.80
2022-07-25T19:24:48.555Z,52.30
2022-07-25T19:27:16.024Z,53.00
2022-07-25T19:29:43.756Z,54.10
2022-07-25T19:32:11.173Z,54.00
2022-07-25T19:34:38.464Z,52.60
2022-07-25T19:37:05.706Z,52.00
2022-07-25T19:39:32.986Z,53.30
2022-07-25T19:42:00.390Z,55.90
2022-07-25T19:44:27.737Z,56.20
2022-07-25T19:46:55.426Z,56.00
2022-07-25T19:49:22.778Z,54.70
2022-07-25T19:51:50.139Z,55.50
2022-07-25T19:54:17.633Z,55.60
2022-07-25T19:56:44.870Z,55.90
2022-07-25T19:59:12.219Z,55.20
2022-07-25T20:01:39.570Z,56.50
2022-07-25T20:04:09.267Z,56.50
2022-07-25T20:06:37.149Z,54.40
2022-07-25T20:09:05.043Z,53.50
2022-07-25T20:11:32.892Z,53.00
2022-07-25T20:14:01.787Z,53.60
2022-07-25T20:16:29.373Z,53.30
2022-07-25T20:18:56.578Z,55.80
2022-07-25T20:21:24.546Z,55.70
2022-07-25T20:23:51.904Z,56.00
2022-07-25T20:26:19.190Z,55.40
2022-07-25T20:28:46.642Z,56.00
2022-07-25T20:31:14.263Z,56.50
2022-07-25T20:33:41.752Z,57.90
2022-07-25T20:36:09.716Z,56.50
2022-07-25T20:38:37.099Z,55.50
2022-07-25T20:41:05.775Z,55.50
2022-07-25T20:43:33.493Z,55.80
2022-07-25T20:46:00.789Z,56.60
2022-07-25T20:48:28.249Z,56.30
2022-07-25T20:50:55.823Z,56.60
2022-07-25T20:53:23.708Z,56.50
2022-07-25T20:55:51.509Z,56.10
2022-07-25T20:58:18.942Z,57.20
2022-07-25T21:00:46.534Z,58.10
2022-07-25T21:03:13.874Z,57.60
2022-07-25T21:05:43.467Z,56.30
2022-07-25T21:08:12.024Z,56.50
2022-07-25T21:10:39.804Z,57.00
2022-07-25T21:13:07.170Z,57.20
2022-07-25T21:15:35.044Z,57.70
2022-07-25T21:18:02.306Z,56.90
2022-07-25T21:20:30.038Z,57.30
2022-07-25T21:22:57.261Z,58.40
2022-07-25T21:25:24.768Z,58.00
2022-07-25T21:27:52.075Z,57.30
2022-07-25T21:30:19.373Z,56.70
2022-07-25T21:32:46.849Z,57.50
2022-07-25T21:35:14.130Z,59.00
2022-07-25T21:37:41.664Z,58.10
2022-07-25T21:40:09.975Z,57.20
2022-07-25T21:42:37.831Z,57.60
2022-07-25T21:45:05.765Z,57.10
2022-07-25T21:47:33.081Z,57.30
2022-07-25T21:50:24.193Z,57.40
2022-07-25T21:52:53.071Z,58.40
2022-07-25T21:55:21.356Z,58.60
2022-07-25T21:57:49.281Z,59.20
2022-07-25T22:00:17.060Z,59.50
2022-07-25T22:02:46.325Z,59.00
2022-07-25T22:05:14.858Z,58.50
2022-07-25T22:07:44.011Z,58.00
2022-07-25T22:10:12.901Z,57.60
2022-07-25T22:12:41.493Z,58.20
2022-07-25T22:15:12.140Z,57.90
2022-07-25T22:17:48.494Z,57.90
2022-07-25T22:20:18.090Z,58.00
2022-07-25T22:22:46.718Z,57.30
2022-07-25T22:25:14.298Z,58.10
2022-07-25T22:27:41.565Z,58.10
2022-07-25T22:30:12.343Z,59.00
2022-07-25T22:32:43.940Z,59.10
2022-07-25T22:35:11.247Z,59.50
2022-07-25T22:37:38.969Z,60.70
2022-07-25T22:40:06.911Z,58.80
2022-07-25T22:42:34.315Z,59.00
2022-07-25T22:45:01.766Z,58.70
2022-07-25T22:47:28.982Z,57.90
2022-07-25T22:49:56.276Z,57.80
2022-07-25T22:52:23.643Z,57.80
2022-07-25T22:54:50.970Z,57.80
2022-07-25T22:57:18.266Z,57.90
2022-07-25T22:59:49.308Z,58.00
2022-07-25T23:02:16.831Z,58.10
2022-07-25T23:04:44.479Z,59.00
2022-07-25T23:07:11.757Z,58.60
2022-07-25T23:09:39.432Z,58.60
2022-07-25T23:12:06.815Z,58.90
2022-07-25T23:14:34.688Z,58.70
2022-07-25T23:17:20.530Z,58.70
2022-07-25T23:19:50.362Z,59.40
2022-07-25T23:22:18.777Z,59.90
2022-07-25T23:24:46.437Z,59.70
2022-07-25T23:27:14.882Z,60.80
2022-07-25T23:29:42.691Z,60.60
2022-07-25T23:32:10.203Z,60.00
2022-07-25T23:34:37.618Z,60.20
2022-07-25T23:37:05.168Z,59.90
2022-07-25T23:39:33.683Z,60.60
2022-07-25T23:42:01.559Z,60.50
2022-07-25T23:44:29.098Z,60.50
2022-07-25T23:46:57.597Z,61.00
2022-07-25T23:49:25.103Z,60.90
2022-07-25T23:51:52.428Z,61.10
2022-07-25T23:54:19.630Z,61.10
2022-07-25T23:56:46.924Z,61.40
2022-07-25T23:59:14.355Z,61.20
